Normanton, Queensland

5:56 PM AEST on August 29, 2015 (GMT +1000)
Normanton | | Change Station
CLOSE
Current Station
Airport
Location: Normanton Airport,
Elevation: 72 ft
Nearby Weather Stations

Elev 72 ft 17.68 °S, 141.07 °E | Updated 56 minutes ago

Scattered Clouds
Scattered Clouds
86 °F
Feels Like 87 °F
N
14
Wind Variable Wind from NW

Today
High -- | Low -- °F
--% Chance of Precip.
Yesterday
High -- | Low -- °F
Precip. -- in
6:45 AM 6:28 PM
Full, 100% visible
Pressure 29.92 in
Visibility 6.2 miles
Clouds Scattered Clouds 10000 ft
Heat Index 87 °F
Dew Point 63 °F
Humidity 45%
Rainfall 0.00 in
Snow Depth Not available.
UV 1 out of 12
Pollen Not available.
Air Quality Not available.
Flu Activity Not available.
METAR YNTN 290700Z AUTO 32012KT 9999 // SCT100 30/17 Q1013
Pressure 29.92 in
Visibility 6.2 miles
Clouds Scattered Clouds 10000 ft
Heat Index 87 °F
Dew Point 63 °F
Humidity 45%
Rainfall 0.00 in
Snow Depth Not available.
UV 1 out of 12
Pollen Not available.
Air Quality Not available.
Flu Activity Not available.
METAR YNTN 290700Z AUTO 32012KT 9999 // SCT100 30/17 Q1013

10-Day Weather Forecast

×

Almanac

Astronomy

Aug. 29, 2015 Rise Set
Actual Time
Civil Twilight
Nautical Twilight
Astronomical Twilight
Moon
Length of Visible Light
Length of Day
Tomorrow will be .
, % of the Moon is Illuminated

Today's Extremes

Country Highs Country Lows

Community

WunderPhotos

Upload Photos

1,850,634 photos uploaded!

WunderBlogs® & News

Nearby

Air Quality

  Air Quality AQ Index Pollutant
Not available.

Snow Depth

Station Depth Elevation

Earthquake Activity

City Distance Mag. Time & Date
Minimum magnitude displayed is 2.5.

Coastal Water Temperatures

Place Temperature

Stations

Nearby Weather Stations

Station Location Temp. Windchill Dew Point Humidity Wind Precip. Elev Updated Type